createdAt,value
2023-05-17T00:03:00.418Z,2.73
2023-05-17T00:06:07.006Z,2.33
2023-05-17T00:09:10.652Z,2.83
2023-05-17T00:12:15.831Z,2.57
2023-05-17T00:15:21.480Z,2.10
2023-05-17T00:18:24.646Z,2.43
2023-05-17T00:21:27.431Z,2.20
2023-05-17T00:24:30.316Z,2.20
2023-05-17T00:27:33.031Z,2.50
2023-05-17T00:30:37.168Z,2.30
2023-05-17T00:33:39.904Z,2.40
2023-05-17T00:36:42.632Z,2.60
2023-05-17T00:39:45.382Z,2.07
2023-05-17T00:42:48.111Z,2.20
2023-05-17T00:45:52.191Z,2.53
2023-05-17T00:48:55.327Z,2.10
2023-05-17T00:51:58.142Z,2.17
2023-05-17T00:55:01.019Z,2.30
2023-05-17T00:58:03.845Z,2.30
2023-05-17T01:01:07.960Z,2.70
2023-05-17T01:04:11.309Z,2.40
2023-05-17T01:07:14.134Z,3.03
2023-05-17T01:10:16.867Z,3.10
2023-05-17T01:13:23.915Z,3.03
2023-05-17T01:16:34.453Z,3.00
2023-05-17T01:20:06.422Z,2.50
2023-05-17T01:23:36.645Z,1.83
2023-05-17T01:26:44.121Z,1.60
2023-05-17T01:29:49.072Z,1.70
2023-05-17T01:32:52.125Z,1.70
2023-05-17T01:35:57.072Z,1.77
2023-05-17T01:39:00.552Z,1.70
2023-05-17T01:42:12.752Z,1.83
2023-05-17T01:45:22.882Z,2.37
2023-05-17T01:48:32.586Z,2.47
2023-05-17T01:51:40.917Z,2.40
2023-05-17T01:54:48.934Z,3.00
2023-05-17T01:57:55.182Z,2.87
2023-05-17T02:01:03.173Z,4.47
2023-05-17T02:04:06.163Z,4.70
2023-05-17T02:07:08.983Z,3.77
2023-05-17T02:10:12.348Z,2.43
2023-05-17T02:13:16.475Z,3.00
2023-05-17T02:16:19.178Z,3.07
2023-05-17T02:19:22.041Z,2.50
2023-05-17T02:22:24.973Z,2.70
2023-05-17T02:25:28.095Z,2.13
2023-05-17T02:28:33.109Z,2.10
2023-05-17T02:31:36.215Z,2.33
2023-05-17T02:34:38.931Z,2.53
2023-05-17T02:37:41.961Z,2.53
2023-05-17T02:40:44.778Z,3.27
2023-05-17T02:43:48.917Z,3.33
2023-05-17T02:46:51.653Z,3.70
2023-05-17T02:49:54.759Z,4.20
2023-05-17T02:52:57.480Z,3.93
2023-05-17T02:56:00.213Z,2.17
2023-05-17T02:59:04.904Z,2.23
2023-05-17T03:02:08.124Z,2.67
2023-05-17T03:05:11.465Z,2.40
2023-05-17T03:08:14.657Z,2.37
2023-05-17T03:11:17.389Z,2.20
2023-05-17T03:14:21.434Z,2.40
2023-05-17T03:17:24.215Z,1.90
2023-05-17T03:20:26.949Z,2.00
2023-05-17T03:23:29.753Z,2.00
2023-05-17T03:26:33.518Z,1.83
2023-05-17T03:29:37.667Z,2.07
2023-05-17T03:32:40.772Z,2.60
2023-05-17T03:35:43.644Z,2.80
2023-05-17T03:38:46.394Z,2.73
2023-05-17T03:41:49.125Z,3.20
2023-05-17T03:44:53.252Z,4.87
2023-05-17T03:47:56.183Z,6.40
2023-05-17T03:50:59.341Z,5.87
2023-05-17T03:54:02.309Z,5.60
2023-05-17T03:57:05.437Z,5.07
2023-05-17T04:00:12.343Z,5.10
2023-05-17T04:03:15.846Z,5.30
2023-05-17T04:06:19.630Z,5.27
2023-05-17T04:09:22.344Z,5.13
2023-05-17T04:12:25.097Z,4.87
2023-05-17T04:15:29.372Z,4.50
2023-05-17T04:18:32.265Z,3.83
2023-05-17T04:21:35.129Z,3.50
2023-05-17T04:24:38.085Z,3.73
2023-05-17T04:27:40.971Z,4.37
2023-05-17T04:30:45.932Z,5.50
2023-05-17T04:33:48.717Z,5.93
2023-05-17T04:36:51.797Z,4.37
2023-05-17T04:39:54.564Z,4.53
2023-05-17T04:42:57.365Z,4.60
2023-05-17T04:46:02.360Z,4.30
2023-05-17T04:49:05.268Z,3.40
2023-05-17T04:52:08.463Z,3.13
2023-05-17T04:55:11.403Z,4.40
2023-05-17T04:58:16.725Z,3.77
2023-05-17T05:01:22.142Z,4.73
2023-05-17T05:04:25.613Z,4.10
2023-05-17T05:07:29.040Z,3.70
2023-05-17T05:10:31.776Z,2.80
2023-05-17T05:13:37.510Z,3.00
2023-05-17T05:16:41.642Z,2.87
2023-05-17T05:19:44.389Z,2.37
2023-05-17T05:22:47.140Z,2.30
2023-05-17T05:25:49.955Z,2.93
2023-05-17T05:28:52.671Z,2.97
2023-05-17T05:31:56.748Z,3.43
2023-05-17T05:34:59.801Z,4.13
2023-05-17T05:38:03.232Z,5.17
2023-05-17T05:41:06.033Z,5.57
2023-05-17T05:44:09.014Z,5.90
2023-05-17T05:47:13.102Z,6.00
2023-05-17T05:50:16.319Z,5.60
2023-05-17T05:53:19.931Z,5.23
2023-05-17T05:56:24.645Z,5.83
2023-05-17T05:59:28.000Z,4.63
2023-05-17T06:02:35.365Z,5.30
2023-05-17T06:05:38.544Z,4.90
2023-05-17T06:08:45.759Z,5.37
2023-05-17T06:11:48.504Z,5.00
2023-05-17T06:14:51.223Z,4.67
2023-05-17T06:17:55.384Z,4.70
2023-05-17T06:20:58.174Z,5.13
2023-05-17T06:24:02.749Z,4.60
2023-05-17T06:27:09.964Z,3.90
2023-05-17T06:30:15.773Z,3.20
2023-05-17T06:33:19.943Z,3.80
2023-05-17T06:36:23.740Z,3.40
2023-05-17T06:39:27.163Z,3.23
2023-05-17T06:42:30.782Z,3.83
2023-05-17T06:45:33.532Z,2.43
2023-05-17T06:48:37.715Z,2.53
2023-05-17T06:51:40.716Z,2.70
2023-05-17T06:54:46.393Z,2.13
2023-05-17T06:57:49.144Z,2.20
2023-05-17T07:00:51.877Z,2.87
2023-05-17T07:03:56.895Z,2.60
2023-05-17T07:06:59.682Z,2.33
2023-05-17T07:10:05.974Z,2.40
2023-05-17T07:13:08.950Z,2.00
2023-05-17T07:16:11.823Z,2.80
2023-05-17T07:19:16.157Z,2.30
2023-05-17T07:22:19.233Z,3.00
2023-05-17T07:25:22.136Z,2.47
2023-05-17T07:28:31.057Z,2.67
2023-05-17T07:31:33.812Z,2.57
2023-05-17T07:34:38.306Z,2.43
2023-05-17T07:37:41.241Z,2.50
2023-05-17T07:40:44.330Z,2.57
2023-05-17T07:43:47.085Z,2.43
2023-05-17T07:46:50.841Z,2.90
2023-05-17T07:49:55.081Z,3.10
2023-05-17T07:52:58.025Z,3.00
2023-05-17T07:56:03.178Z,2.27
2023-05-17T07:59:06.054Z,2.27
2023-05-17T08:02:09.890Z,3.00
2023-05-17T08:05:14.065Z,3.10
2023-05-17T08:08:16.785Z,3.17
2023-05-17T08:11:19.538Z,2.30
2023-05-17T08:14:24.185Z,3.20
2023-05-17T08:17:27.032Z,2.10
2023-05-17T08:20:31.296Z,2.80
2023-05-17T08:23:40.348Z,3.20
2023-05-17T08:26:43.087Z,3.20
2023-05-17T08:29:45.846Z,2.93
2023-05-17T08:32:49.292Z,2.97
2023-05-17T08:35:55.300Z,3.20
2023-05-17T08:38:58.108Z,2.70
2023-05-17T08:42:02.606Z,2.90
2023-05-17T08:45:08.517Z,3.10
2023-05-17T08:48:11.506Z,2.97
2023-05-17T08:51:16.604Z,3.60
2023-05-17T08:54:19.358Z,2.83
2023-05-17T08:57:24.408Z,2.90
2023-05-17T09:00:28.210Z,2.80
2023-05-17T09:03:33.404Z,2.93
2023-05-17T09:06:38.187Z,3.07
2023-05-17T09:09:41.763Z,3.20
2023-05-17T09:12:45.533Z,3.03
2023-05-17T09:15:49.557Z,2.60
2023-05-17T09:18:55.733Z,2.97
2023-05-17T09:22:02.601Z,2.97
2023-05-17T09:25:06.048Z,2.63
2023-05-17T09:28:09.022Z,3.00
2023-05-17T09:31:13.625Z,2.93
2023-05-17T09:34:19.892Z,2.70
2023-05-17T09:37:24.466Z,2.80
2023-05-17T09:40:27.281Z,2.90
2023-05-17T09:43:30.926Z,3.00
2023-05-17T09:46:35.315Z,2.63
2023-05-17T09:49:38.048Z,2.50
2023-05-17T09:52:45.136Z,3.13
2023-05-17T09:55:49.239Z,2.77
2023-05-17T09:58:52.090Z,2.90
2023-05-17T10:01:56.088Z,3.03
2023-05-17T10:04:59.556Z,2.30
2023-05-17T10:08:05.923Z,2.30
2023-05-17T10:11:10.560Z,2.57
2023-05-17T10:14:18.904Z,3.60
2023-05-17T10:17:22.056Z,2.73
2023-05-17T10:20:25.100Z,2.80
2023-05-17T10:23:31.116Z,2.37
2023-05-17T10:26:35.649Z,2.43
2023-05-17T10:29:40.686Z,2.50
2023-05-17T10:32:46.602Z,2.73
2023-05-17T10:35:51.167Z,2.30
2023-05-17T10:38:55.901Z,2.57
2023-05-17T10:42:13.814Z,2.87
2023-05-17T10:45:18.062Z,3.10
2023-05-17T10:48:20.925Z,2.57
2023-05-17T10:51:25.588Z,2.90
2023-05-17T10:54:38.646Z,3.03
2023-05-17T11:00:49.287Z,2.80
2023-05-17T11:03:52.056Z,2.50
2023-05-17T11:07:16.797Z,2.60
2023-05-17T11:10:20.950Z,2.90
2023-05-17T11:13:27.200Z,3.93
2023-05-17T11:16:36.780Z,3.20
2023-05-17T11:19:39.734Z,2.40
2023-05-17T11:22:45.475Z,2.90
2023-05-17T11:25:52.131Z,2.97
2023-05-17T11:29:03.726Z,2.80
2023-05-17T11:32:07.657Z,3.33
2023-05-17T11:35:13.171Z,2.70
2023-05-17T11:38:18.913Z,2.93
2023-05-17T11:41:26.918Z,3.23
2023-05-17T11:44:31.511Z,2.77
2023-05-17T11:47:34.595Z,2.30
2023-05-17T11:50:37.996Z,2.60
2023-05-17T11:53:41.333Z,2.83
2023-05-17T11:56:45.888Z,2.60
2023-05-17T11:59:48.764Z,2.50
2023-05-17T12:02:52.067Z,2.90
2023-05-17T12:06:03.920Z,3.93
2023-05-17T12:09:10.800Z,2.30
2023-05-17T12:12:15.272Z,2.40
2023-05-17T12:15:20.518Z,2.23
2023-05-17T12:18:23.307Z,2.33
2023-05-17T12:21:26.161Z,2.53
2023-05-17T12:24:38.561Z,2.50
2023-05-17T12:27:43.008Z,2.60
2023-05-17T12:30:46.605Z,2.47
2023-05-17T12:33:50.906Z,2.60
2023-05-17T12:36:54.521Z,2.63
2023-05-17T12:39:58.784Z,4.77
2023-05-17T12:43:06.269Z,2.70
2023-05-17T12:46:10.431Z,2.70
2023-05-17T12:49:13.509Z,2.20
2023-05-17T12:52:18.998Z,2.53
2023-05-17T12:55:21.767Z,2.53
2023-05-17T12:58:26.072Z,2.57
2023-05-17T13:01:34.424Z,2.40
2023-05-17T13:04:38.804Z,2.40
2023-05-17T13:15:59.471Z,2.60
2023-05-17T13:19:02.557Z,2.65
2023-05-17T13:22:06.233Z,2.50
2023-05-17T13:25:09.425Z,2.50
2023-05-17T13:28:12.274Z,2.30
2023-05-17T13:31:17.053Z,2.70
2023-05-17T13:34:21.103Z,2.50
2023-05-17T13:37:23.937Z,2.47
2023-05-17T13:40:26.812Z,2.10
2023-05-17T13:43:29.590Z,2.10
2023-05-17T13:46:33.730Z,2.13
2023-05-17T13:49:37.422Z,2.40
2023-05-17T13:52:42.030Z,2.10
2023-05-17T13:55:44.773Z,2.30
2023-05-17T13:58:48.528Z,2.07
2023-05-17T14:01:53.843Z,1.10
2023-05-17T14:04:56.572Z,2.00
2023-05-17T14:07:59.270Z,2.20
2023-05-17T14:11:02.219Z,2.17
2023-05-17T14:14:05.190Z,2.10
2023-05-17T14:17:09.231Z,2.60
2023-05-17T14:20:14.241Z,2.40
2023-05-17T14:23:17.081Z,2.20
2023-05-17T14:26:19.879Z,2.23
2023-05-17T14:29:22.590Z,2.20
2023-05-17T14:32:26.869Z,2.30
2023-05-17T14:35:30.654Z,2.50
2023-05-17T14:38:33.454Z,2.30
2023-05-17T14:41:36.429Z,2.40
2023-05-17T14:44:39.781Z,2.17
2023-05-17T14:47:43.860Z,1.80
2023-05-17T14:50:46.662Z,2.20
2023-05-17T14:53:49.415Z,2.40
2023-05-17T14:56:52.374Z,2.00
2023-05-17T14:59:55.164Z,2.20
2023-05-17T15:02:59.392Z,2.30
2023-05-17T15:06:05.682Z,1.80
2023-05-17T15:09:13.130Z,1.93
2023-05-17T15:12:15.902Z,1.37
2023-05-17T15:15:20.585Z,2.00
2023-05-17T15:18:24.728Z,5.13
2023-05-17T15:21:27.749Z,1.70
2023-05-17T15:24:30.744Z,2.20
2023-05-17T15:27:33.596Z,2.10
2023-05-17T15:30:36.351Z,1.50
2023-05-17T15:33:43.111Z,2.10
2023-05-17T15:36:46.006Z,2.40
2023-05-17T15:39:49.112Z,2.20
2023-05-17T15:42:52.812Z,1.47
2023-05-17T15:45:55.508Z,1.37
2023-05-17T15:48:59.591Z,5.07
2023-05-17T15:52:02.409Z,2.13
2023-05-17T15:55:05.901Z,2.00
2023-05-17T15:58:10.845Z,1.97
2023-05-17T16:01:13.595Z,1.60
2023-05-17T16:04:17.779Z,2.07
2023-05-17T16:07:20.606Z,2.10
2023-05-17T16:10:23.693Z,2.20
2023-05-17T16:13:26.594Z,2.33
2023-05-17T16:16:29.599Z,2.20
2023-05-17T16:19:34.741Z,1.30
2023-05-17T16:22:37.651Z,1.50
2023-05-17T16:25:40.816Z,1.90
2023-05-17T16:28:44.023Z,2.23
2023-05-17T16:31:48.919Z,2.33
2023-05-17T16:34:53.205Z,2.00
2023-05-17T16:37:56.575Z,2.17
2023-05-17T16:41:03.010Z,2.13
2023-05-17T16:44:06.239Z,1.93
2023-05-17T16:47:09.233Z,1.50
2023-05-17T16:50:14.143Z,2.17
2023-05-17T16:53:17.093Z,1.90
2023-05-17T16:56:19.864Z,2.30
2023-05-17T16:59:22.977Z,1.80
2023-05-17T17:02:26.016Z,1.90
2023-05-17T17:05:30.214Z,1.67
2023-05-17T17:08:32.932Z,1.80
2023-05-17T17:11:35.933Z,2.57
2023-05-17T17:14:39.388Z,1.70
2023-05-17T17:17:42.832Z,2.03
2023-05-17T17:20:47.367Z,1.80
2023-05-17T17:23:50.348Z,2.20
2023-05-17T17:26:53.764Z,1.70
2023-05-17T17:29:56.802Z,1.70
2023-05-17T17:32:59.604Z,2.03
2023-05-17T17:36:04.494Z,2.10
2023-05-17T17:39:07.471Z,1.87
2023-05-17T17:42:10.662Z,1.80
2023-05-17T17:45:13.411Z,2.07
2023-05-17T17:48:16.379Z,1.87
2023-05-17T17:51:20.731Z,1.47
2023-05-17T17:54:23.709Z,1.83
2023-05-17T17:57:26.695Z,1.60
2023-05-17T18:00:29.956Z,1.80
2023-05-17T18:03:33.205Z,1.60
2023-05-17T18:06:37.643Z,1.80
2023-05-17T18:09:40.540Z,1.60
2023-05-17T18:12:43.547Z,1.63
2023-05-17T18:15:46.362Z,1.80
2023-05-17T18:18:49.271Z,1.80
2023-05-17T18:21:53.532Z,1.80
2023-05-17T18:24:56.638Z,1.80
2023-05-17T18:27:59.480Z,1.90
2023-05-17T18:31:02.331Z,2.33
2023-05-17T18:34:05.064Z,2.80
2023-05-17T18:37:09.249Z,3.23
2023-05-17T18:40:13.316Z,2.63
2023-05-17T18:43:16.238Z,2.50
2023-05-17T18:46:19.099Z,3.80
2023-05-17T18:49:22.241Z,3.10
2023-05-17T18:52:26.434Z,2.30
2023-05-17T18:55:29.346Z,2.60
2023-05-17T18:58:32.266Z,2.30
2023-05-17T19:01:35.221Z,2.33
2023-05-17T19:04:38.631Z,2.03
2023-05-17T19:07:42.980Z,2.17
2023-05-17T19:10:46.440Z,2.17
2023-05-17T19:13:49.342Z,2.20
2023-05-17T19:16:53.056Z,2.30
2023-05-17T19:19:55.939Z,1.70
2023-05-17T19:23:00.735Z,1.93
2023-05-17T19:26:03.954Z,2.17
2023-05-17T19:29:07.162Z,2.17
2023-05-17T19:32:09.914Z,4.33
2023-05-17T19:35:12.670Z,6.20
2023-05-17T19:38:16.903Z,2.60
2023-05-17T19:41:20.351Z,2.80
2023-05-17T19:44:23.072Z,2.77
2023-05-17T19:47:25.781Z,2.37
2023-05-17T19:50:28.725Z,3.03
2023-05-17T19:53:47.976Z,2.23
2023-05-17T19:56:54.069Z,2.60
2023-05-17T19:59:56.880Z,2.67
2023-05-17T20:02:59.850Z,1.80
2023-05-17T20:06:03.723Z,2.60
2023-05-17T20:09:08.002Z,2.40
2023-05-17T20:12:10.978Z,2.60
2023-05-17T20:15:16.585Z,2.60
2023-05-17T20:18:20.048Z,4.07
2023-05-17T20:21:23.359Z,4.50
2023-05-17T20:24:29.077Z,4.07
2023-05-17T20:27:31.866Z,4.00
2023-05-17T20:30:34.647Z,3.73
2023-05-17T20:33:37.474Z,3.23
2023-05-17T20:36:40.158Z,3.00
2023-05-17T20:39:44.365Z,3.33
2023-05-17T20:42:48.515Z,3.10
2023-05-17T20:45:53.757Z,3.10
2023-05-17T20:48:58.136Z,3.30
2023-05-17T20:52:03.585Z,3.70
2023-05-17T20:55:09.715Z,3.70
2023-05-17T20:58:12.432Z,3.80
2023-05-17T21:01:15.176Z,3.50
2023-05-17T21:04:17.933Z,3.37
2023-05-17T21:07:21.008Z,3.20
2023-05-17T21:10:25.107Z,3.53
2023-05-17T21:13:27.878Z,3.67
2023-05-17T21:16:30.904Z,3.43
2023-05-17T21:19:33.872Z,3.57
2023-05-17T21:22:37.470Z,3.83
2023-05-17T21:25:41.954Z,3.30
2023-05-17T21:28:44.712Z,3.77
2023-05-17T21:31:47.545Z,3.67
2023-05-17T21:34:52.147Z,3.43
2023-05-17T21:37:56.480Z,4.33
2023-05-17T21:41:00.625Z,4.20
2023-05-17T21:44:03.788Z,6.30
2023-05-17T21:47:06.675Z,4.77
2023-05-17T21:50:10.887Z,4.10
2023-05-17T21:53:14.032Z,3.70
2023-05-17T21:56:18.270Z,3.77
2023-05-17T21:59:21.030Z,4.47
2023-05-17T22:02:24.120Z,4.80
2023-05-17T22:05:27.188Z,4.27
2023-05-17T22:08:30.051Z,3.90
2023-05-17T22:11:39.034Z,3.30
2023-05-17T22:14:43.367Z,3.60
2023-05-17T22:17:51.873Z,3.17
2023-05-17T22:20:59.432Z,3.60
2023-05-17T22:24:02.732Z,3.40
2023-05-17T22:27:07.216Z,3.53
2023-05-17T22:30:13.859Z,3.33
2023-05-17T22:33:16.894Z,4.50
2023-05-17T22:36:19.687Z,3.87
2023-05-17T22:39:22.387Z,4.07
2023-05-17T22:42:26.666Z,4.00
2023-05-17T22:45:33.109Z,3.53
2023-05-17T22:48:37.684Z,3.50
2023-05-17T22:51:40.518Z,3.17
2023-05-17T22:54:43.298Z,2.83
2023-05-17T22:57:47.504Z,3.33
2023-05-17T23:00:51.506Z,3.40
2023-05-17T23:03:54.328Z,3.20
2023-05-17T23:07:01.972Z,3.60
2023-05-17T23:10:06.879Z,3.50
2023-05-17T23:13:11.062Z,3.00
2023-05-17T23:16:14.768Z,3.50
2023-05-17T23:19:18.185Z,3.10
2023-05-17T23:22:20.987Z,3.00
2023-05-17T23:25:23.745Z,3.37
2023-05-17T23:28:27.823Z,3.77
2023-05-17T23:31:30.946Z,4.03
2023-05-17T23:34:33.713Z,4.57
2023-05-17T23:37:37.511Z,7.10
2023-05-17T23:40:40.236Z,7.13
2023-05-17T23:43:44.373Z,6.00
2023-05-17T23:46:47.153Z,4.70
2023-05-17T23:49:49.846Z,3.40
2023-05-17T23:52:52.584Z,3.70
2023-05-17T23:55:55.550Z,3.60
2023-05-17T23:58:59.664Z,3.70
